Time;durP1;ratioP1;P1;durP2;ratioP2;P2;SDS_P1;SDS_P2;PMS_P1;PMS_P2;Temp;Humidity;BMP_temperature;BMP_pressure;BME280_temperature;BME280_humidity;BME280_pressure;Samples;Min_cycle;Max_cycle;Signal;HPM_P1;HPM_P2
2023/09/23 00:01:46;;;;;;;1.58;1.13;;;13.10;99.90;;;;;;5002063;28;20068;-65
2023/09/23 00:04:13;;;;;;;1.23;0.85;;;13.00;99.90;;;;;;5009510;28;20499;-64
2023/09/23 00:06:39;;;;;;;2.22;1.05;;;13.00;99.90;;;;;;5008990;28;20382;-65
2023/09/23 00:09:07;;;;;;;1.70;1.00;;;12.90;99.90;;;;;;5009894;28;20057;-66
2023/09/23 00:11:37;;;;;;;2.33;1.20;;;13.00;99.90;;;;;;5009365;28;20550;-65
2023/09/23 00:14:05;;;;;;;2.28;1.10;;;13.00;99.90;;;;;;5009137;28;20073;-64
2023/09/23 00:16:32;;;;;;;3.20;1.40;;;13.00;99.90;;;;;;5008635;28;20072;-66
2023/09/23 00:18:58;;;;;;;1.98;1.35;;;13.00;99.90;;;;;;5009579;28;20060;-65
2023/09/23 00:21:25;;;;;;;3.05;1.48;;;13.00;99.90;;;;;;5011072;28;20053;-64
2023/09/23 00:23:51;;;;;;;2.40;1.50;;;13.00;99.90;;;;;;5010901;28;20454;-65
2023/09/23 00:26:17;;;;;;;4.82;2.00;;;12.90;99.90;;;;;;5010675;28;20057;-63
2023/09/23 00:28:46;;;;;;;2.63;1.58;;;12.90;99.90;;;;;;5009984;28;20046;-64
2023/09/23 00:31:14;;;;;;;4.50;2.00;;;12.90;99.90;;;;;;5010719;28;20415;-63
2023/09/23 00:33:41;;;;;;;2.90;1.77;;;12.90;99.90;;;;;;5010434;28;20447;-64
2023/09/23 00:36:09;;;;;;;3.17;2.25;;;12.90;99.90;;;;;;5010475;28;20046;-64
2023/09/23 00:38:36;;;;;;;4.05;2.28;;;12.80;99.90;;;;;;5009704;28;20068;-64
2023/09/23 00:41:03;;;;;;;3.92;2.35;;;12.80;99.90;;;;;;5010692;28;20112;-63
2023/09/23 00:43:32;;;;;;;3.70;2.65;;;12.80;99.90;;;;;;5010501;28;20146;-65
2023/09/23 00:46:00;;;;;;;5.00;2.90;;;12.80;99.90;;;;;;5010182;28;20049;-64
2023/09/23 00:48:27;;;;;;;4.32;3.35;;;12.90;99.90;;;;;;4992301;28;20050;-64
2023/09/23 00:50:54;;;;;;;4.22;3.50;;;12.90;99.90;;;;;;4992999;28;20347;-63
2023/09/23 00:53:23;;;;;;;4.93;3.85;;;12.90;99.90;;;;;;5010605;28;20060;-66
2023/09/23 00:55:52;;;;;;;4.78;3.40;;;13.00;99.90;;;;;;4992022;28;20392;-64
2023/09/23 00:58:21;;;;;;;5.50;4.20;;;12.90;99.90;;;;;;5009517;28;20443;-64
2023/09/23 01:00:49;;;;;;;4.60;4.20;;;12.90;99.90;;;;;;4993062;28;20112;-63
2023/09/23 01:03:15;;;;;;;6.57;4.43;;;12.90;99.90;;;;;;4993120;28;20054;-64
2023/09/23 01:05:43;;;;;;;4.95;4.18;;;12.80;99.90;;;;;;4992150;28;20061;-64
2023/09/23 01:08:20;;;;;;;5.10;4.60;;;12.80;99.90;;;;;;4975957;28;20061;-65
2023/09/23 01:10:51;;;;;;;5.93;5.32;;;12.90;99.90;;;;;;5010357;28;20050;-65
2023/09/23 01:13:23;;;;;;;5.43;4.18;;;12.90;99.90;;;;;;4992332;28;20410;-62
2023/09/23 01:15:51;;;;;;;7.95;5.15;;;12.90;99.90;;;;;;4976065;28;20486;-64
2023/09/23 01:18:18;;;;;;;5.57;4.80;;;12.80;99.90;;;;;;4992281;28;20065;-66
2023/09/23 01:20:48;;;;;;;5.40;4.60;;;12.80;99.90;;;;;;4992221;28;20045;-65
2023/09/23 01:23:15;;;;;;;4.03;3.63;;;12.80;99.90;;;;;;4992219;28;20069;-64
2023/09/23 01:25:42;;;;;;;4.18;3.70;;;12.90;99.90;;;;;;4992165;28;20197;-65
2023/09/23 01:28:11;;;;;;;3.90;3.00;;;12.80;99.90;;;;;;5009083;28;20049;-63
2023/09/23 01:30:38;;;;;;;3.92;2.70;;;12.70;99.90;;;;;;4992496;28;20056;-65
2023/09/23 01:33:10;;;;;;;4.35;2.70;;;12.60;99.90;;;;;;4976370;28;20050;-65
2023/09/23 01:35:37;;;;;;;5.47;2.53;;;12.60;99.90;;;;;;5009617;28;20049;-64
2023/09/23 01:38:04;;;;;;;4.18;2.60;;;12.50;99.90;;;;;;4991592;28;20054;-65
2023/09/23 01:40:31;;;;;;;4.20;3.00;;;12.40;99.90;;;;;;4975992;28;20116;-65
2023/09/23 01:42:58;;;;;;;4.18;2.70;;;12.50;99.90;;;;;;4992401;28;20066;-64
2023/09/23 01:45:25;;;;;;;4.03;2.70;;;12.40;99.90;;;;;;4991887;28;20058;-65
2023/09/23 01:47:56;;;;;;;3.47;2.88;;;12.30;99.90;;;;;;4991758;28;20038;-64
2023/09/23 01:50:27;;;;;;;3.05;2.53;;;12.20;99.90;;;;;;4976034;28;20225;-64
2023/09/23 01:52:58;;;;;;;3.90;2.75;;;12.10;99.90;;;;;;4991988;28;20061;-64
2023/09/23 01:55:26;;;;;;;4.30;2.95;;;12.20;99.90;;;;;;4991632;28;20092;-65
2023/09/23 01:57:52;;;;;;;3.38;2.60;;;12.10;99.90;;;;;;4975642;28;20414;-64
2023/09/23 02:00:21;;;;;;;3.35;3.05;;;12.00;99.90;;;;;;4992239;28;20057;-62
2023/09/23 02:02:49;;;;;;;3.97;3.10;;;11.90;99.90;;;;;;4992283;28;20065;-63
2023/09/23 02:05:18;;;;;;;5.85;3.53;;;12.00;99.90;;;;;;4991990;28;20061;-63
2023/09/23 02:07:47;;;;;;;4.50;3.83;;;11.90;99.90;;;;;;4994689;28;20050;-64
2023/09/23 02:10:15;;;;;;;3.92;3.30;;;11.90;99.90;;;;;;4980000;28;20049;-65
2023/09/23 02:12:42;;;;;;;3.97;3.45;;;11.80;99.90;;;;;;4996512;28;20089;-62
2023/09/23 02:15:10;;;;;;;4.07;3.67;;;11.80;99.90;;;;;;4995685;28;20090;-63
2023/09/23 02:17:36;;;;;;;5.25;4.18;;;11.70;99.90;;;;;;4995361;28;20054;-64
2023/09/23 02:20:25;;;;;;;4.88;4.38;;;11.70;99.90;;;;;;4996326;28;20057;-63
2023/09/23 02:22:53;;;;;;;5.78;4.72;;;11.80;99.90;;;;;;4995893;28;20098;-62
2023/09/23 02:25:19;;;;;;;6.70;5.18;;;11.80;99.90;;;;;;4979346;28;20053;-64
2023/09/23 02:27:51;;;;;;;6.97;5.15;;;11.80;99.90;;;;;;4995344;28;20050;-64
2023/09/23 02:30:18;;;;;;;7.07;5.00;;;11.80;99.90;;;;;;5013358;28;20369;-63
2023/09/23 02:32:47;;;;;;;5.97;5.25;;;11.80;99.90;;;;;;5013420;28;20068;-64
2023/09/23 02:35:16;;;;;;;6.55;5.53;;;11.80;99.90;;;;;;5013011;28;20096;-63
2023/09/23 02:37:44;;;;;;;6.97;5.90;;;11.80;99.90;;;;;;5012396;28;20057;-64
2023/09/23 02:40:17;;;;;;;7.38;6.20;;;11.70;99.90;;;;;;5013119;28;20061;-63
2023/09/23 02:42:48;;;;;;;7.03;5.60;;;11.80;99.90;;;;;;5012876;28;20108;-64
2023/09/23 02:45:16;;;;;;;6.97;5.55;;;11.70;99.90;;;;;;5012217;28;20370;-64
2023/09/23 02:47:43;;;;;;;8.23;6.03;;;11.80;99.90;;;;;;5012393;28;20481;-63
2023/09/23 02:50:10;;;;;;;8.63;6.43;;;11.70;99.90;;;;;;5012517;28;20057;-64
2023/09/23 02:52:40;;;;;;;7.28;5.05;;;11.70;99.90;;;;;;5012805;28;20229;-64
2023/09/23 02:55:12;;;;;;;7.35;6.25;;;11.60;99.90;;;;;;5012414;28;20522;-63
2023/09/23 02:57:40;;;;;;;7.68;6.88;;;11.70;99.90;;;;;;5012417;28;20112;-63
2023/09/23 03:00:18;;;;;;;7.82;6.55;;;11.60;99.90;;;;;;5012467;28;20391;-63
2023/09/23 03:02:45;;;;;;;7.63;6.80;;;11.50;99.90;;;;;;5012714;28;20116;-63
2023/09/23 03:05:18;;;;;;;8.35;6.20;;;11.50;99.90;;;;;;4994879;28;20355;-63
2023/09/23 03:07:48;;;;;;;9.38;6.75;;;11.50;99.90;;;;;;5012070;28;20058;-63
2023/09/23 03:10:18;;;;;;;7.25;6.50;;;11.50;99.90;;;;;;4995116;28;20050;-62
2023/09/23 03:12:53;;;;;;;7.55;6.40;;;11.60;99.90;;;;;;5012110;28;20084;-62
2023/09/23 03:15:33;;;;;;;7.65;6.10;;;11.50;99.90;;;;;;5011710;28;20707;-62
2023/09/23 03:18:00;;;;;;;6.30;5.65;;;11.50;99.90;;;;;;5011539;28;20420;-63
2023/09/23 03:20:27;;;;;;;8.13;6.60;;;11.50;99.90;;;;;;5011935;28;20049;-62
2023/09/23 03:22:53;;;;;;;6.75;6.00;;;11.40;99.90;;;;;;5012023;28;20058;-67
2023/09/23 03:25:20;;;;;;;10.02;6.47;;;11.40;99.90;;;;;;5012196;28;20058;-63
2023/09/23 03:27:48;;;;;;;6.90;5.97;;;11.40;99.90;;;;;;5011546;28;20116;-63
2023/09/23 03:30:16;;;;;;;8.50;7.00;;;11.40;99.90;;;;;;5011846;28;20061;-64
2023/09/23 03:32:42;;;;;;;7.50;6.35;;;11.40;99.90;;;;;;4994274;28;20486;-62
2023/09/23 03:35:14;;;;;;;7.57;6.35;;;11.40;99.90;;;;;;5011192;28;20116;-62
2023/09/23 03:37:40;;;;;;;7.43;6.03;;;11.40;99.90;;;;;;5011275;28;20068;-64
2023/09/23 03:40:07;;;;;;;6.75;5.45;;;11.30;99.90;;;;;;4994094;28;20412;-64
2023/09/23 03:42:34;;;;;;;6.20;5.40;;;11.40;99.90;;;;;;5011666;28;20117;-62
2023/09/23 03:45:03;;;;;;;6.95;5.03;;;11.40;99.90;;;;;;5011330;28;20472;-62
2023/09/23 03:47:29;;;;;;;6.85;5.47;;;11.30;99.90;;;;;;5010940;28;20054;-63
2023/09/23 03:49:56;;;;;;;6.90;5.25;;;11.40;99.90;;;;;;5011516;28;20065;-64
2023/09/23 03:52:23;;;;;;;6.57;5.63;;;11.40;99.90;;;;;;5011602;28;20046;-64
2023/09/23 03:54:51;;;;;;;6.15;4.80;;;11.50;99.90;;;;;;5011221;28;20061;-62
2023/09/23 03:57:17;;;;;;;6.68;5.22;;;11.40;99.90;;;;;;5010844;28;20390;-65
2023/09/23 03:59:43;;;;;;;6.82;5.43;;;11.40;99.90;;;;;;5010738;28;20443;-62
2023/09/23 04:02:10;;;;;;;7.03;5.53;;;11.40;99.90;;;;;;5011667;28;20125;-63
2023/09/23 04:04:37;;;;;;;8.32;6.35;;;11.40;99.90;;;;;;5011272;28;20045;-62
2023/09/23 04:07:06;;;;;;;10.40;6.60;;;11.30;99.90;;;;;;5010758;28;20058;-63
2023/09/23 04:09:33;;;;;;;7.80;6.97;;;11.40;99.90;;;;;;5010856;28;20050;-64
2023/09/23 04:12:03;;;;;;;8.13;6.20;;;11.30;99.90;;;;;;5011211;28;20562;-64
2023/09/23 04:14:30;;;;;;;8.77;7.40;;;11.30;99.90;;;;;;5011538;28;20065;-62
2023/09/23 04:16:56;;;;;;;9.40;7.25;;;11.30;99.90;;;;;;5010506;28;20046;-63
2023/09/23 04:19:23;;;;;;;10.98;8.25;;;11.20;99.90;;;;;;5011203;28;20050;-62
2023/09/23 04:21:49;;;;;;;9.75;7.45;;;11.30;99.90;;;;;;5011348;28;20057;-62
2023/09/23 04:24:15;;;;;;;12.25;8.63;;;11.20;99.90;;;;;;5011178;28;20050;-67
2023/09/23 04:26:42;;;;;;;13.15;8.57;;;11.10;99.90;;;;;;5010544;28;20065;-64
2023/09/23 04:29:08;;;;;;;8.95;7.20;;;11.20;99.90;;;;;;5010132;28;20363;-64
2023/09/23 04:31:34;;;;;;;10.18;7.68;;;11.20;99.90;;;;;;5009813;28;20050;-65
2023/09/23 04:34:00;;;;;;;10.43;8.02;;;11.10;99.90;;;;;;5010839;28;20466;-62
2023/09/23 04:36:28;;;;;;;10.50;7.60;;;11.10;99.90;;;;;;4992061;28;20363;-64
2023/09/23 04:38:54;;;;;;;9.43;7.60;;;11.00;99.90;;;;;;5010009;28;20054;-63
2023/09/23 04:41:20;;;;;;;11.85;7.80;;;11.00;99.90;;;;;;5010566;28;20381;-65
2023/09/23 04:43:47;;;;;;;11.93;9.55;;;11.00;99.90;;;;;;5010168;28;20485;-64
2023/09/23 04:46:17;;;;;;;11.63;8.40;;;11.00;99.90;;;;;;5010121;28;20379;-64
2023/09/23 04:48:43;;;;;;;11.02;8.88;;;11.00;99.90;;;;;;5009952;28;20378;-64
2023/09/23 04:51:09;;;;;;;11.07;9.88;;;10.80;99.90;;;;;;5010378;28;20060;-64
2023/09/23 04:53:35;;;;;;;14.73;10.48;;;10.90;99.90;;;;;;5010198;28;20501;-64
2023/09/23 04:56:06;;;;;;;14.10;10.93;;;10.80;99.90;;;;;;5010147;28;20426;-63
2023/09/23 04:58:33;;;;;;;16.42;11.05;;;10.80;99.90;;;;;;5020091;28;20308;-64
2023/09/23 05:00:59;;;;;;;14.68;11.02;;;10.80;99.90;;;;;;5010716;28;20116;-64
2023/09/23 05:03:25;;;;;;;14.60;11.45;;;10.80;99.90;;;;;;5010498;28;20301;-65
2023/09/23 05:05:51;;;;;;;15.07;11.35;;;10.80;99.90;;;;;;5010000;28;20053;-66
2023/09/23 05:08:18;;;;;;;19.55;12.57;;;10.80;99.90;;;;;;4976223;28;20088;-62
2023/09/23 05:10:45;;;;;;;18.13;13.20;;;10.90;99.90;;;;;;4992926;28;20046;-65
2023/09/23 05:13:17;;;;;;;17.30;12.88;;;10.90;99.90;;;;;;5010596;28;20116;-63
2023/09/23 05:15:43;;;;;;;19.63;14.27;;;10.90;99.90;;;;;;5009862;28;20049;-64
2023/09/23 05:18:10;;;;;;;20.85;14.25;;;10.90;99.90;;;;;;4992474;28;20124;-64
2023/09/23 05:20:36;;;;;;;21.55;14.10;;;10.90;99.90;;;;;;5010521;28;20374;-63
2023/09/23 05:23:05;;;;;;;20.13;14.35;;;11.00;99.90;;;;;;5010182;28;20125;-64
2023/09/23 05:25:31;;;;;;;20.23;14.60;;;11.00;99.90;;;;;;5009950;28;20049;-64
2023/09/23 05:27:58;;;;;;;19.98;14.55;;;11.10;99.90;;;;;;5009661;28;20042;-63
2023/09/23 05:30:26;;;;;;;18.20;14.10;;;11.10;99.90;;;;;;5009082;28;20042;-63
2023/09/23 05:32:52;;;;;;;19.02;14.30;;;11.00;99.90;;;;;;5008778;28;20049;-63
2023/09/23 05:35:19;;;;;;;18.70;14.88;;;11.00;99.90;;;;;;5008106;28;20137;-65
2023/09/23 05:37:47;;;;;;;21.70;16.25;;;11.00;99.90;;;;;;5008750;28;20100;-64
2023/09/23 05:40:36;;;;;;;23.40;16.30;;;11.00;99.90;;;;;;5007424;28;20060;-63
2023/09/23 05:43:00;;;;;;;23.30;17.42;;;11.00;99.90;;;;;;5015693;28;20115;-63
2023/09/23 05:45:26;;;;;;;21.65;15.95;;;11.10;99.90;;;;;;4998265;28;20056;-64
2023/09/23 05:47:53;;;;;;;21.63;16.83;;;11.20;99.90;;;;;;5016014;28;20042;-65
2023/09/23 05:50:20;;;;;;;23.52;18.40;;;11.20;99.90;;;;;;5016179;28;20046;-64
2023/09/23 05:52:47;;;;;;;23.35;17.13;;;11.30;99.90;;;;;;5016580;28;20049;-64
2023/09/23 05:55:14;;;;;;;23.33;18.63;;;11.40;99.90;;;;;;5016186;28;20156;-63
2023/09/23 05:57:41;;;;;;;24.98;18.45;;;11.40;99.90;;;;;;5015276;28;20049;-64
2023/09/23 06:00:10;;;;;;;22.60;17.73;;;11.50;99.90;;;;;;5015999;28;20058;-64
2023/09/23 06:02:41;;;;;;;27.15;18.88;;;11.60;99.90;;;;;;5016690;28;20057;-64
2023/09/23 06:05:07;;;;;;;22.77;16.60;;;11.60;99.90;;;;;;5015888;28;20405;-65
2023/09/23 06:07:33;;;;;;;21.45;15.70;;;11.60;99.90;;;;;;5015848;28;20307;-63
2023/09/23 06:10:00;;;;;;;22.73;17.83;;;11.70;99.90;;;;;;5016146;28;20054;-64
2023/09/23 06:12:30;;;;;;;23.77;17.30;;;11.70;99.90;;;;;;5016361;28;20109;-65
2023/09/23 06:15:00;;;;;;;24.25;17.70;;;11.90;99.90;;;;;;5015570;28;20221;-65
2023/09/23 06:17:27;;;;;;;21.67;17.10;;;11.90;99.90;;;;;;4998544;28;20374;-67
2023/09/23 06:19:56;;;;;;;22.42;17.42;;;12.00;99.90;;;;;;5016268;28;20064;-65
2023/09/23 06:22:23;;;;;;;22.98;17.05;;;12.20;99.90;;;;;;5016002;28;20234;-64
2023/09/23 06:24:50;;;;;;;23.67;17.13;;;12.30;99.90;;;;;;5015865;28;20057;-63
2023/09/23 06:27:17;;;;;;;23.48;17.27;;;12.40;99.90;;;;;;5015980;28;20049;-64
2023/09/23 06:29:44;;;;;;;22.10;17.55;;;12.40;99.90;;;;;;4998194;28;20053;-65
2023/09/23 06:32:10;;;;;;;22.95;17.90;;;12.50;99.90;;;;;;5016126;28;20058;-64
2023/09/23 06:34:36;;;;;;;21.33;17.92;;;12.70;99.90;;;;;;5015550;28;20077;-64
2023/09/23 06:37:03;;;;;;;20.90;16.63;;;12.70;99.90;;;;;;5015045;28;20357;-64
2023/09/23 06:39:29;;;;;;;21.58;16.00;;;12.80;99.90;;;;;;5014829;28;20077;-64
2023/09/23 06:41:56;;;;;;;19.13;16.33;;;12.70;99.90;;;;;;5015950;28;20046;-65
2023/09/23 06:44:22;;;;;;;21.17;16.52;;;12.60;99.90;;;;;;5015776;28;20114;-65
2023/09/23 06:46:50;;;;;;;21.73;15.93;;;12.60;99.90;;;;;;5014741;28;20069;-65
2023/09/23 06:49:17;;;;;;;23.70;16.35;;;12.60;99.90;;;;;;5015532;28;20053;-64
2023/09/23 06:51:44;;;;;;;21.40;16.88;;;12.50;99.90;;;;;;5015688;28;20053;-64
2023/09/23 06:54:10;;;;;;;20.38;16.23;;;12.50;99.90;;;;;;5012136;28;20045;-64
2023/09/23 06:56:37;;;;;;;21.90;16.00;;;12.60;99.90;;;;;;5012207;28;20049;-66
2023/09/23 06:59:03;;;;;;;19.25;16.02;;;12.50;99.90;;;;;;4994386;28;20050;-63
2023/09/23 07:01:30;;;;;;;19.90;14.70;;;12.50;99.90;;;;;;4995687;28;20069;-63
2023/09/23 07:03:56;;;;;;;20.77;15.93;;;12.60;99.90;;;;;;5012707;28;20128;-64
2023/09/23 07:06:22;;;;;;;23.42;16.02;;;12.50;99.90;;;;;;5012302;28;20447;-64
2023/09/23 07:08:49;;;;;;;20.90;15.75;;;12.50;99.90;;;;;;5012110;28;20065;-63
2023/09/23 07:11:15;;;;;;;17.95;14.90;;;12.60;99.90;;;;;;5012305;28;20054;-64
2023/09/23 07:13:41;;;;;;;19.95;15.00;;;12.60;99.90;;;;;;5012435;28;20065;-63
2023/09/23 07:16:14;;;;;;;21.40;16.35;;;12.50;99.90;;;;;;5012183;28;20076;-64
2023/09/23 07:18:41;;;;;;;20.67;17.15;;;12.50;99.90;;;;;;5012179;28;20460;-67
2023/09/23 07:21:08;;;;;;;18.15;13.52;;;12.60;99.90;;;;;;4994897;28;20058;-64
2023/09/23 07:23:35;;;;;;;18.20;16.08;;;12.70;99.90;;;;;;5012389;28;20474;-65
2023/09/23 07:26:04;;;;;;;18.08;15.25;;;12.80;99.90;;;;;;4978396;28;20057;-65
2023/09/23 07:28:31;;;;;;;18.05;14.85;;;12.90;99.90;;;;;;5011486;28;20064;-64
2023/09/23 07:30:57;;;;;;;19.40;14.65;;;13.20;99.90;;;;;;4994742;28;20074;-65
2023/09/23 07:33:23;;;;;;;21.98;16.00;;;13.30;99.90;;;;;;5011874;28;20050;-63
2023/09/23 07:35:50;;;;;;;19.85;14.95;;;13.40;99.90;;;;;;4994368;28;20076;-65
2023/09/23 07:38:16;;;;;;;16.73;14.30;;;13.60;99.90;;;;;;5011316;28;20081;-64
2023/09/23 07:40:42;;;;;;;17.50;14.05;;;13.70;99.90;;;;;;5012033;28;20108;-64
2023/09/23 07:43:08;;;;;;;18.50;14.82;;;13.80;99.90;;;;;;5010400;28;20042;-64
2023/09/23 07:45:35;;;;;;;15.25;13.25;;;14.00;99.90;;;;;;5010176;28;20346;-64
2023/09/23 07:48:01;;;;;;;15.10;13.25;;;14.10;99.90;;;;;;5011021;28;20060;-67
2023/09/23 07:50:28;;;;;;;14.15;12.65;;;14.10;99.90;;;;;;5011491;28;20068;-64
2023/09/23 07:52:54;;;;;;;14.77;13.15;;;14.30;99.90;;;;;;5011207;28;20108;-64
2023/09/23 07:55:20;;;;;;;16.42;14.45;;;14.20;99.90;;;;;;5010951;28;20046;-66
2023/09/23 07:57:46;;;;;;;15.88;13.10;;;14.30;99.90;;;;;;4993842;28;20320;-62
2023/09/23 08:00:13;;;;;;;14.85;12.77;;;14.30;99.90;;;;;;4993881;28;20108;-64
2023/09/23 08:02:39;;;;;;;15.75;13.32;;;14.20;99.90;;;;;;5012117;28;20112;-65
2023/09/23 08:05:06;;;;;;;14.73;12.77;;;14.10;99.90;;;;;;5011143;28;20054;-64
2023/09/23 08:07:32;;;;;;;14.63;13.23;;;14.10;99.90;;;;;;5011112;28;20050;-64
2023/09/23 08:09:59;;;;;;;16.83;13.45;;;14.10;99.90;;;;;;5010926;28;20042;-65
2023/09/23 08:12:25;;;;;;;14.65;13.15;;;14.10;99.90;;;;;;5011746;28;20057;-64
2023/09/23 08:14:52;;;;;;;14.80;13.32;;;14.00;99.90;;;;;;5010723;28;20104;-65
2023/09/23 08:17:18;;;;;;;14.20;12.70;;;13.90;99.90;;;;;;4993392;28;20077;-64
2023/09/23 08:19:45;;;;;;;14.90;12.00;;;13.90;99.90;;;;;;5011083;28;20046;-63
2023/09/23 08:22:11;;;;;;;15.02;13.40;;;14.00;99.90;;;;;;5010782;28;20065;-64
2023/09/23 08:24:39;;;;;;;16.52;13.40;;;13.90;99.90;;;;;;5010856;28;20375;-65
2023/09/23 08:27:05;;;;;;;14.13;12.48;;;13.90;99.90;;;;;;5011168;28;20065;-62
2023/09/23 08:29:32;;;;;;;14.30;12.70;;;13.80;99.90;;;;;;5010676;28;20056;-63
2023/09/23 08:31:58;;;;;;;14.43;12.93;;;13.80;99.90;;;;;;4992782;28;20100;-65
2023/09/23 08:34:24;;;;;;;14.27;12.13;;;13.80;99.90;;;;;;5010488;28;20101;-63
2023/09/23 08:36:52;;;;;;;14.55;12.75;;;13.90;99.90;;;;;;5009914;28;20042;-63
2023/09/23 08:39:18;;;;;;;14.57;13.07;;;14.00;99.90;;;;;;5009851;28;20049;-65
2023/09/23 08:41:51;;;;;;;15.65;14.07;;;14.10;99.90;;;;;;5009795;28;20065;-64
2023/09/23 08:44:20;;;;;;;15.10;12.30;;;14.30;99.90;;;;;;4992631;28;20050;-62
2023/09/23 08:46:49;;;;;;;14.48;12.30;;;14.50;99.90;;;;;;5010256;28;20474;-64
2023/09/23 08:49:17;;;;;;;15.93;12.38;;;14.60;99.90;;;;;;5009581;28;20081;-64
2023/09/23 08:51:45;;;;;;;15.05;12.80;;;14.60;99.90;;;;;;5010341;28;20054;-63
2023/09/23 08:54:12;;;;;;;14.88;11.23;;;14.60;99.90;;;;;;5009703;28;20046;-66
2023/09/23 08:56:38;;;;;;;11.73;10.05;;;14.70;99.90;;;;;;5010228;28;20382;-64
2023/09/23 08:59:04;;;;;;;10.98;9.63;;;14.60;99.90;;;;;;5009721;28;20046;-64
2023/09/23 09:01:40;;;;;;;10.68;9.60;;;14.70;99.90;;;;;;5010313;28;20065;-65
2023/09/23 09:04:07;;;;;;;10.05;9.05;;;14.70;99.90;;;;;;5010563;28;20073;-64
2023/09/23 09:06:33;;;;;;;9.68;8.77;;;15.00;99.90;;;;;;5010178;28;20053;-63
2023/09/23 09:09:02;;;;;;;11.40;8.73;;;15.20;99.90;;;;;;5009588;28;20493;-64
2023/09/23 09:11:28;;;;;;;10.05;9.05;;;15.40;99.90;;;;;;5010440;28;20081;-64
2023/09/23 09:13:54;;;;;;;8.57;7.72;;;15.70;99.90;;;;;;5010255;28;20053;-63
2023/09/23 09:16:21;;;;;;;10.20;7.72;;;15.70;99.90;;;;;;5009674;28;20058;-65
2023/09/23 09:18:51;;;;;;;11.88;7.28;;;15.60;99.90;;;;;;5010387;28;20066;-64
2023/09/23 09:21:17;;;;;;;8.88;7.10;;;15.50;99.90;;;;;;5010638;28;20050;-64
2023/09/23 09:23:43;;;;;;;8.05;6.85;;;15.50;99.90;;;;;;5010279;28;20339;-64
2023/09/23 09:26:09;;;;;;;9.27;6.00;;;15.60;99.90;;;;;;5010470;28;20389;-66
2023/09/23 09:28:36;;;;;;;7.93;7.13;;;15.60;99.90;;;;;;5010366;28;20111;-63
2023/09/23 09:31:05;;;;;;;10.25;6.68;;;15.60;99.90;;;;;;5010774;28;20425;-64
2023/09/23 09:33:36;;;;;;;9.48;7.03;;;15.70;99.90;;;;;;5010873;28;20065;-64
2023/09/23 09:36:02;;;;;;;8.45;7.40;;;15.90;99.90;;;;;;5010715;28;20116;-64
2023/09/23 09:38:32;;;;;;;7.53;6.78;;;15.90;99.90;;;;;;5009998;28;20057;-63
2023/09/23 09:41:04;;;;;;;9.48;6.55;;;16.00;99.90;;;;;;5009989;28;20046;-64
2023/09/23 09:43:30;;;;;;;;;;;16.00;99.90;;;;;;5010204;28;20442;-64
2023/09/23 09:46:00;;;;;;;8.45;5.90;;;16.00;99.90;;;;;;4991131;28;19984;-64
2023/09/23 09:48:30;;;;;;;10.38;5.97;;;16.00;99.90;;;;;;5009742;28;20470;-64
2023/09/23 09:50:56;;;;;;;7.40;5.63;;;16.00;99.90;;;;;;5009558;28;20049;-63
2023/09/23 09:53:23;;;;;;;8.02;5.88;;;16.00;99.90;;;;;;5008851;28;20065;-64
2023/09/23 09:55:50;;;;;;;6.90;5.53;;;16.10;99.90;;;;;;5008744;28;20046;-66
2023/09/23 09:58:16;;;;;;;8.52;6.25;;;16.00;99.90;;;;;;5009280;28;20069;-65
2023/09/23 10:00:43;;;;;;;6.88;4.90;;;16.10;99.90;;;;;;4992059;28;20386;-64
2023/09/23 10:03:12;;;;;;;9.23;5.18;;;16.20;99.90;;;;;;5009596;28;20057;-64
2023/09/23 10:05:46;;;;;;;6.20;4.72;;;16.50;99.90;;;;;;5008827;28;20050;-64
2023/09/23 10:08:15;;;;;;;6.90;4.55;;;16.70;99.90;;;;;;5009552;28;20450;-63
2023/09/23 10:10:49;;;;;;;6.50;5.82;;;16.90;99.90;;;;;;5009571;28;20465;-65
2023/09/23 10:13:17;;;;;;;5.72;4.65;;;16.70;99.90;;;;;;5010000;28;20115;-65
2023/09/23 10:15:44;;;;;;;5.88;4.30;;;16.80;99.90;;;;;;5009421;28;20294;-63
2023/09/23 10:18:18;;;;;;;7.13;4.80;;;16.70;99.90;;;;;;5009293;28;20049;-63
2023/09/23 10:20:52;;;;;;;5.78;5.15;;;16.70;99.90;;;;;;5007830;28;20042;-63
2023/09/23 10:23:20;;;;;;;7.72;5.03;;;16.70;99.90;;;;;;5009581;28;20112;-64
2023/09/23 10:25:50;;;;;;;6.65;4.20;;;16.70;99.90;;;;;;5008658;28;20422;-65
2023/09/23 10:28:23;;;;;;;7.18;5.00;;;16.60;99.90;;;;;;5009579;28;20058;-63
2023/09/23 10:31:05;;;;;;;5.57;4.82;;;16.70;99.90;;;;;;5012200;28;20113;-64
2023/09/23 10:33:34;;;;;;;5.78;4.72;;;16.60;99.90;;;;;;5012507;28;20121;-64
2023/09/23 10:36:03;;;;;;;6.38;4.72;;;16.60;99.90;;;;;;5012992;28;20057;-64
2023/09/23 10:38:34;;;;;;;6.22;4.63;;;16.60;99.90;;;;;;5015827;28;20443;-64
2023/09/23 10:41:01;;;;;;;;;;;16.80;99.90;;;;;;5013108;28;20050;-62
2023/09/23 10:43:28;;;;;;;6.10;4.25;;;16.80;99.90;;;;;;5012540;28;19921;-65
2023/09/23 10:45:56;;;;;;;5.53;4.10;;;16.80;99.90;;;;;;5011805;28;20527;-64
2023/09/23 10:48:23;;;;;;;6.85;3.65;;;16.90;99.90;;;;;;4989425;28;20220;-64
2023/09/23 10:50:51;;;;;;;5.40;4.43;;;16.90;99.90;;;;;;5011404;28;20050;-65
2023/09/23 10:53:18;;;;;;;5.00;4.07;;;16.90;99.90;;;;;;5011917;28;20072;-64
2023/09/23 10:55:45;;;;;;;4.25;3.60;;;16.90;99.90;;;;;;5011713;28;20147;-64
2023/09/23 10:58:12;;;;;;;7.18;3.88;;;16.90;99.90;;;;;;5012104;28;20454;-66
2023/09/23 11:00:39;;;;;;;5.22;3.83;;;17.00;99.90;;;;;;5012091;28;20368;-63
2023/09/23 11:03:10;;;;;;;3.97;3.25;;;17.00;99.90;;;;;;5012554;28;20134;-64
2023/09/23 11:05:38;;;;;;;4.32;2.70;;;17.10;99.90;;;;;;5012499;28;20394;-65
2023/09/23 11:08:06;;;;;;;6.15;3.42;;;17.20;99.90;;;;;;5012371;28;20048;-66
2023/09/23 11:10:36;;;;;;;4.07;3.20;;;17.10;99.90;;;;;;5012870;28;20050;-65
2023/09/23 11:13:05;;;;;;;7.03;3.10;;;17.10;99.90;;;;;;5012781;28;20046;-64
2023/09/23 11:15:31;;;;;;;6.07;3.30;;;17.20;99.90;;;;;;5012323;28;20050;-64
2023/09/23 11:17:58;;;;;;;5.47;3.03;;;17.10;99.90;;;;;;5012339;28;20038;-65
2023/09/23 11:20:37;;;;;;;2.88;2.40;;;17.10;99.90;;;;;;5012480;28;20181;-62
2023/09/23 11:23:05;;;;;;;3.45;2.50;;;17.10;99.90;;;;;;5012476;28;20101;-64
2023/09/23 11:25:44;;;;;;;6.75;2.40;;;17.20;99.90;;;;;;5011600;28;20378;-64
2023/09/23 11:28:22;;;;;;;4.88;2.60;;;17.30;99.90;;;;;;5011672;28;20049;-65
2023/09/23 11:30:49;;;;;;;;;;;17.30;99.90;;;;;;5012533;28;20395;-65
2023/09/23 11:33:16;;;;;;;3.53;2.55;;;17.30;99.90;;;;;;5012566;28;19921;-63
2023/09/23 11:35:43;;;;;;;4.10;2.40;;;17.40;99.90;;;;;;5011582;28;20057;-64
2023/09/23 11:38:10;;;;;;;4.30;2.20;;;17.50;99.90;;;;;;5011239;28;20096;-65
2023/09/23 11:40:38;;;;;;;4.00;2.38;;;17.60;99.90;;;;;;5011667;28;20060;-64
2023/09/23 11:43:05;;;;;;;3.03;2.10;;;17.60;99.90;;;;;;4994751;28;20057;-65
2023/09/23 11:45:35;;;;;;;3.15;2.00;;;17.70;99.90;;;;;;5011388;28;20054;-64
2023/09/23 11:48:05;;;;;;;5.47;2.05;;;17.70;99.90;;;;;;5011730;28;20064;-64
2023/09/23 11:50:31;;;;;;;3.90;2.08;;;17.70;99.90;;;;;;5011734;28;20046;-65
2023/09/23 11:52:58;;;;;;;3.47;2.00;;;17.80;99.90;;;;;;5011654;28;20473;-65
2023/09/23 11:55:25;;;;;;;4.78;1.77;;;17.90;99.90;;;;;;5011008;28;20417;-64
2023/09/23 11:57:52;;;;;;;3.05;2.03;;;17.90;99.90;;;;;;5011463;28;20413;-65
2023/09/23 12:00:20;;;;;;;3.22;2.00;;;17.90;99.90;;;;;;5011044;28;20053;-65
2023/09/23 12:02:50;;;;;;;3.42;2.10;;;17.80;99.90;;;;;;5011882;28;20049;-65
2023/09/23 12:05:16;;;;;;;5.53;2.50;;;17.80;99.90;;;;;;5011158;28;20049;-63
2023/09/23 12:07:43;;;;;;;3.97;2.60;;;17.80;99.90;;;;;;5011733;28;20046;-64
2023/09/23 12:10:13;;;;;;;4.63;2.30;;;17.90;99.90;;;;;;5011607;28;20061;-64
2023/09/23 12:12:40;;;;;;;4.88;2.30;;;17.90;99.90;;;;;;5011135;28;20490;-67
2023/09/23 12:15:08;;;;;;;3.03;1.95;;;17.90;99.90;;;;;;5010521;28;20390;-62
2023/09/23 12:17:36;;;;;;;3.42;2.05;;;17.80;99.90;;;;;;5010998;28;20094;-64
2023/09/23 12:20:04;;;;;;;4.65;2.45;;;17.80;99.90;;;;;;5011660;28;20065;-62
2023/09/23 12:22:30;;;;;;;2.85;2.00;;;17.60;99.90;;;;;;4993698;28;20353;-64
2023/09/23 12:24:56;;;;;;;3.03;2.03;;;17.60;99.90;;;;;;5010310;28;20351;-65
2023/09/23 12:27:23;;;;;;;3.90;2.15;;;17.50;99.90;;;;;;5010198;28;20094;-65
2023/09/23 12:29:49;;;;;;;4.57;2.40;;;17.70;99.90;;;;;;5010196;28;20054;-64
2023/09/23 12:32:15;;;;;;;4.07;2.33;;;17.80;99.90;;;;;;5011054;28;20072;-64
2023/09/23 12:34:41;;;;;;;4.22;2.33;;;18.00;99.90;;;;;;4991746;28;20046;-63
2023/09/23 12:37:08;;;;;;;3.50;1.63;;;18.30;99.90;;;;;;5010180;28;20102;-62
2023/09/23 12:39:34;;;;;;;2.90;2.00;;;18.40;99.90;;;;;;5010159;28;20057;-63
2023/09/23 12:42:01;;;;;;;2.50;1.42;;;18.50;99.90;;;;;;5010432;28;20049;-63
2023/09/23 12:44:27;;;;;;;2.58;1.60;;;18.50;99.90;;;;;;5010300;28;20061;-65